sensor_id;sensor_type;location;lat;lon;timestamp;temperature;humidity
2639;DHT22;1329;51.384;7.122;2024-01-15T00:00:49;3.10;99.90
2639;DHT22;1329;51.384;7.122;2024-01-15T00:03:18;3.10;99.90
2639;DHT22;1329;51.384;7.122;2024-01-15T00:05:46;3.10;99.90
2639;DHT22;1329;51.384;7.122;2024-01-15T00:08:28;3.10;99.90
2639;DHT22;1329;51.384;7.122;2024-01-15T00:10:55;3.10;99.90
2639;DHT22;1329;51.384;7.122;2024-01-15T00:13:23;3.10;99.90
2639;DHT22;1329;51.384;7.122;2024-01-15T00:16:19;3.10;99.90
2639;DHT22;1329;51.384;7.122;2024-01-15T00:18:54;3.10;99.90
2639;DHT22;1329;51.384;7.122;2024-01-15T00:21:22;3.10;99.90
2639;DHT22;1329;51.384;7.122;2024-01-15T00:23:49;3.10;99.90
2639;DHT22;1329;51.384;7.122;2024-01-15T00:29:34;3.10;99.90
2639;DHT22;1329;51.384;7.122;2024-01-15T00:32:06;3.10;99.90
2639;DHT22;1329;51.384;7.122;2024-01-15T00:34:35;3.10;99.90
2639;DHT22;1329;51.384;7.122;2024-01-15T00:37:11;3.10;99.90
2639;DHT22;1329;51.384;7.122;2024-01-15T00:39:39;3.10;99.90
2639;DHT22;1329;51.384;7.122;2024-01-15T00:42:09;3.10;99.90
2639;DHT22;1329;51.384;7.122;2024-01-15T00:44:37;3.20;99.90
2639;DHT22;1329;51.384;7.122;2024-01-15T00:47:05;3.20;99.90
2639;DHT22;1329;51.384;7.122;2024-01-15T00:49:33;3.10;99.90
2639;DHT22;1329;51.384;7.122;2024-01-15T00:52:14;3.20;99.90
2639;DHT22;1329;51.384;7.122;2024-01-15T00:54:43;3.20;99.90
2639;DHT22;1329;51.384;7.122;2024-01-15T00:57:25;3.20;99.90
2639;DHT22;1329;51.384;7.122;2024-01-15T00:59:53;3.20;99.90
2639;DHT22;1329;51.384;7.122;2024-01-15T01:02:20;3.20;99.90
2639;DHT22;1329;51.384;7.122;2024-01-15T01:04:59;3.20;99.90
2639;DHT22;1329;51.384;7.122;2024-01-15T01:07:32;3.20;99.90
2639;DHT22;1329;51.384;7.122;2024-01-15T01:10:06;3.20;99.90
2639;DHT22;1329;51.384;7.122;2024-01-15T01:12:33;3.20;99.90
2639;DHT22;1329;51.384;7.122;2024-01-15T01:15:02;3.20;99.90
2639;DHT22;1329;51.384;7.122;2024-01-15T01:17:30;3.20;99.90
2639;DHT22;1329;51.384;7.122;2024-01-15T01:20:01;3.20;99.90
2639;DHT22;1329;51.384;7.122;2024-01-15T01:22:34;3.20;99.90
2639;DHT22;1329;51.384;7.122;2024-01-15T01:25:20;3.20;99.90
2639;DHT22;1329;51.384;7.122;2024-01-15T01:27:48;3.20;99.90
2639;DHT22;1329;51.384;7.122;2024-01-15T01:30:39;3.20;99.90
2639;DHT22;1329;51.384;7.122;2024-01-15T01:33:09;3.20;99.90
2639;DHT22;1329;51.384;7.122;2024-01-15T01:35:40;3.30;99.90
2639;DHT22;1329;51.384;7.122;2024-01-15T01:38:20;3.30;99.90
2639;DHT22;1329;51.384;7.122;2024-01-15T01:40:47;3.30;99.90
2639;DHT22;1329;51.384;7.122;2024-01-15T01:43:15;3.20;99.90
2639;DHT22;1329;51.384;7.122;2024-01-15T01:45:42;3.30;99.90
2639;DHT22;1329;51.384;7.122;2024-01-15T01:48:49;3.30;99.90
2639;DHT22;1329;51.384;7.122;2024-01-15T01:51:21;3.30;99.90
2639;DHT22;1329;51.384;7.122;2024-01-15T01:53:51;3.30;99.90
2639;DHT22;1329;51.384;7.122;2024-01-15T01:56:29;3.20;99.90
2639;DHT22;1329;51.384;7.122;2024-01-15T01:59:18;3.30;99.90
2639;DHT22;1329;51.384;7.122;2024-01-15T02:04:30;3.30;99.90
2639;DHT22;1329;51.384;7.122;2024-01-15T02:07:07;3.30;99.90
2639;DHT22;1329;51.384;7.122;2024-01-15T02:09:44;3.30;99.90
2639;DHT22;1329;51.384;7.122;2024-01-15T02:12:12;3.30;99.90
2639;DHT22;1329;51.384;7.122;2024-01-15T02:15:12;3.30;99.90
2639;DHT22;1329;51.384;7.122;2024-01-15T02:18:03;3.20;99.90
2639;DHT22;1329;51.384;7.122;2024-01-15T02:20:32;3.30;99.90
2639;DHT22;1329;51.384;7.122;2024-01-15T02:23:12;3.30;99.90
2639;DHT22;1329;51.384;7.122;2024-01-15T02:28:37;3.30;99.90
2639;DHT22;1329;51.384;7.122;2024-01-15T02:31:22;3.30;99.90
2639;DHT22;1329;51.384;7.122;2024-01-15T02:33:50;3.30;99.90
2639;DHT22;1329;51.384;7.122;2024-01-15T02:42:42;3.30;99.90
2639;DHT22;1329;51.384;7.122;2024-01-15T02:45:19;3.30;99.90
2639;DHT22;1329;51.384;7.122;2024-01-15T02:47:48;3.30;99.90
2639;DHT22;1329;51.384;7.122;2024-01-15T02:50:15;3.30;99.90
2639;DHT22;1329;51.384;7.122;2024-01-15T02:52:47;3.30;99.90
2639;DHT22;1329;51.384;7.122;2024-01-15T02:55:41;3.30;99.90
2639;DHT22;1329;51.384;7.122;2024-01-15T02:58:08;3.30;99.90
2639;DHT22;1329;51.384;7.122;2024-01-15T03:00:39;3.30;99.90
2639;DHT22;1329;51.384;7.122;2024-01-15T03:03:07;3.30;99.90
2639;DHT22;1329;51.384;7.122;2024-01-15T03:05:34;3.30;99.90
2639;DHT22;1329;51.384;7.122;2024-01-15T03:08:02;3.30;99.90
2639;DHT22;1329;51.384;7.122;2024-01-15T03:13:52;3.40;99.90
2639;DHT22;1329;51.384;7.122;2024-01-15T03:16:25;3.30;99.90
2639;DHT22;1329;51.384;7.122;2024-01-15T03:18:59;3.40;99.90
2639;DHT22;1329;51.384;7.122;2024-01-15T03:21:29;3.40;99.90
2639;DHT22;1329;51.384;7.122;2024-01-15T03:24:26;3.30;99.90
2639;DHT22;1329;51.384;7.122;2024-01-15T03:26:55;3.40;99.90
2639;DHT22;1329;51.384;7.122;2024-01-15T03:29:31;3.30;99.90
2639;DHT22;1329;51.384;7.122;2024-01-15T03:31:59;3.40;99.90
2639;DHT22;1329;51.384;7.122;2024-01-15T03:34:29;3.40;99.90
2639;DHT22;1329;51.384;7.122;2024-01-15T03:36:57;3.40;99.90
2639;DHT22;1329;51.384;7.122;2024-01-15T03:39:25;3.40;99.90
2639;DHT22;1329;51.384;7.122;2024-01-15T03:41:52;3.40;99.90
2639;DHT22;1329;51.384;7.122;2024-01-15T03:44:20;3.40;99.90
2639;DHT22;1329;51.384;7.122;2024-01-15T03:46:49;3.40;99.90
2639;DHT22;1329;51.384;7.122;2024-01-15T03:52:16;3.40;99.90
2639;DHT22;1329;51.384;7.122;2024-01-15T03:54:44;3.40;99.90
2639;DHT22;1329;51.384;7.122;2024-01-15T03:57:12;3.40;99.90
2639;DHT22;1329;51.384;7.122;2024-01-15T03:59:56;3.40;99.90
2639;DHT22;1329;51.384;7.122;2024-01-15T04:02:34;3.40;99.90
2639;DHT22;1329;51.384;7.122;2024-01-15T04:05:03;3.40;99.90
2639;DHT22;1329;51.384;7.122;2024-01-15T04:10:32;3.30;99.90
2639;DHT22;1329;51.384;7.122;2024-01-15T04:13:09;3.40;99.90
2639;DHT22;1329;51.384;7.122;2024-01-15T04:15:55;3.40;99.90
2639;DHT22;1329;51.384;7.122;2024-01-15T04:18:24;3.40;99.90
2639;DHT22;1329;51.384;7.122;2024-01-15T04:21:09;3.40;99.90
2639;DHT22;1329;51.384;7.122;2024-01-15T04:23:39;3.40;99.90
2639;DHT22;1329;51.384;7.122;2024-01-15T04:26:21;3.40;99.90
2639;DHT22;1329;51.384;7.122;2024-01-15T04:28:49;3.40;99.90
2639;DHT22;1329;51.384;7.122;2024-01-15T04:31:23;3.40;99.90
2639;DHT22;1329;51.384;7.122;2024-01-15T04:33:54;3.40;99.90
2639;DHT22;1329;51.384;7.122;2024-01-15T04:36:59;3.40;99.90
2639;DHT22;1329;51.384;7.122;2024-01-15T04:39:29;3.40;99.90
2639;DHT22;1329;51.384;7.122;2024-01-15T04:42:05;3.40;99.90
2639;DHT22;1329;51.384;7.122;2024-01-15T04:44:36;3.40;99.90
2639;DHT22;1329;51.384;7.122;2024-01-15T04:47:16;3.40;99.90
2639;DHT22;1329;51.384;7.122;2024-01-15T04:50:21;3.40;99.90
2639;DHT22;1329;51.384;7.122;2024-01-15T04:56:09;3.40;99.90
2639;DHT22;1329;51.384;7.122;2024-01-15T04:59:20;3.40;99.90
2639;DHT22;1329;51.384;7.122;2024-01-15T05:01:55;3.40;99.90
2639;DHT22;1329;51.384;7.122;2024-01-15T05:04:24;3.40;99.90
2639;DHT22;1329;51.384;7.122;2024-01-15T05:07:06;3.40;99.90
2639;DHT22;1329;51.384;7.122;2024-01-15T05:09:36;3.40;99.90
2639;DHT22;1329;51.384;7.122;2024-01-15T05:12:06;3.40;99.90
2639;DHT22;1329;51.384;7.122;2024-01-15T05:14:40;3.40;99.90
2639;DHT22;1329;51.384;7.122;2024-01-15T05:17:28;3.40;99.90
2639;DHT22;1329;51.384;7.122;2024-01-15T05:20:04;3.40;99.90
2639;DHT22;1329;51.384;7.122;2024-01-15T05:22:34;3.40;99.90
2639;DHT22;1329;51.384;7.122;2024-01-15T05:25:14;3.40;99.90
2639;DHT22;1329;51.384;7.122;2024-01-15T05:27:44;3.40;99.90
2639;DHT22;1329;51.384;7.122;2024-01-15T05:30:14;3.40;99.90
2639;DHT22;1329;51.384;7.122;2024-01-15T05:32:44;3.40;99.90
2639;DHT22;1329;51.384;7.122;2024-01-15T05:35:25;3.40;99.90
2639;DHT22;1329;51.384;7.122;2024-01-15T05:38:24;3.40;99.90
2639;DHT22;1329;51.384;7.122;2024-01-15T05:40:42;3.40;99.90
2639;DHT22;1329;51.384;7.122;2024-01-15T05:43:09;3.40;99.90
2639;DHT22;1329;51.384;7.122;2024-01-15T05:45:53;3.40;99.90
2639;DHT22;1329;51.384;7.122;2024-01-15T05:48:25;3.40;99.90
2639;DHT22;1329;51.384;7.122;2024-01-15T05:50:52;3.40;99.90
2639;DHT22;1329;51.384;7.122;2024-01-15T05:53:21;3.30;99.90
2639;DHT22;1329;51.384;7.122;2024-01-15T05:55:50;3.40;99.90
2639;DHT22;1329;51.384;7.122;2024-01-15T05:58:22;3.40;99.90
2639;DHT22;1329;51.384;7.122;2024-01-15T06:00:49;3.40;99.90
2639;DHT22;1329;51.384;7.122;2024-01-15T06:03:19;3.40;99.90
2639;DHT22;1329;51.384;7.122;2024-01-15T06:09:27;3.50;99.90
2639;DHT22;1329;51.384;7.122;2024-01-15T06:12:12;3.50;99.90
2639;DHT22;1329;51.384;7.122;2024-01-15T06:14:39;3.40;99.90
2639;DHT22;1329;51.384;7.122;2024-01-15T06:17:08;3.50;99.90
2639;DHT22;1329;51.384;7.122;2024-01-15T06:19:35;3.50;99.90
2639;DHT22;1329;51.384;7.122;2024-01-15T06:22:02;3.50;99.90
2639;DHT22;1329;51.384;7.122;2024-01-15T06:24:30;3.50;99.90
2639;DHT22;1329;51.384;7.122;2024-01-15T06:26:57;3.50;99.90
2639;DHT22;1329;51.384;7.122;2024-01-15T06:29:26;3.50;99.90
2639;DHT22;1329;51.384;7.122;2024-01-15T06:31:53;3.50;99.90
2639;DHT22;1329;51.384;7.122;2024-01-15T06:34:20;3.50;99.90
2639;DHT22;1329;51.384;7.122;2024-01-15T06:36:47;3.50;99.90
2639;DHT22;1329;51.384;7.122;2024-01-15T06:39:14;3.50;99.90
2639;DHT22;1329;51.384;7.122;2024-01-15T06:41:42;3.50;99.90
2639;DHT22;1329;51.384;7.122;2024-01-15T06:44:09;3.50;99.90
2639;DHT22;1329;51.384;7.122;2024-01-15T06:46:37;3.50;99.90
2639;DHT22;1329;51.384;7.122;2024-01-15T06:49:08;3.50;99.90
2639;DHT22;1329;51.384;7.122;2024-01-15T06:51:35;3.50;99.90
2639;DHT22;1329;51.384;7.122;2024-01-15T06:54:02;3.50;99.90
2639;DHT22;1329;51.384;7.122;2024-01-15T06:56:29;3.50;99.90
2639;DHT22;1329;51.384;7.122;2024-01-15T06:58:58;3.50;99.90
2639;DHT22;1329;51.384;7.122;2024-01-15T07:01:24;3.50;99.90
2639;DHT22;1329;51.384;7.122;2024-01-15T07:03:51;3.50;99.90
2639;DHT22;1329;51.384;7.122;2024-01-15T07:06:18;3.50;99.90
2639;DHT22;1329;51.384;7.122;2024-01-15T07:08:46;3.50;99.90
2639;DHT22;1329;51.384;7.122;2024-01-15T07:11:12;3.50;99.90
2639;DHT22;1329;51.384;7.122;2024-01-15T07:13:39;3.50;99.90
2639;DHT22;1329;51.384;7.122;2024-01-15T07:16:07;3.40;99.90
2639;DHT22;1329;51.384;7.122;2024-01-15T07:18:35;3.40;99.90
2639;DHT22;1329;51.384;7.122;2024-01-15T07:21:02;3.50;99.90
2639;DHT22;1329;51.384;7.122;2024-01-15T07:23:31;3.50;99.90
2639;DHT22;1329;51.384;7.122;2024-01-15T07:25:58;3.50;99.90
2639;DHT22;1329;51.384;7.122;2024-01-15T07:28:25;3.50;99.90
2639;DHT22;1329;51.384;7.122;2024-01-15T07:30:52;3.50;99.90
2639;DHT22;1329;51.384;7.122;2024-01-15T07:33:20;3.50;99.90
2639;DHT22;1329;51.384;7.122;2024-01-15T07:35:47;3.50;99.90
2639;DHT22;1329;51.384;7.122;2024-01-15T07:38:14;3.50;99.90
2639;DHT22;1329;51.384;7.122;2024-01-15T07:40:41;3.50;99.90
2639;DHT22;1329;51.384;7.122;2024-01-15T07:43:07;3.50;99.90
2639;DHT22;1329;51.384;7.122;2024-01-15T07:45:34;3.50;99.90
2639;DHT22;1329;51.384;7.122;2024-01-15T07:48:01;3.50;99.90
2639;DHT22;1329;51.384;7.122;2024-01-15T07:50:30;3.50;99.90
2639;DHT22;1329;51.384;7.122;2024-01-15T07:52:57;3.40;99.90
2639;DHT22;1329;51.384;7.122;2024-01-15T07:55:24;3.50;99.90
2639;DHT22;1329;51.384;7.122;2024-01-15T07:57:51;3.50;99.90
2639;DHT22;1329;51.384;7.122;2024-01-15T08:00:19;3.50;99.90
2639;DHT22;1329;51.384;7.122;2024-01-15T08:02:46;3.50;99.90
2639;DHT22;1329;51.384;7.122;2024-01-15T08:05:13;3.50;99.90
2639;DHT22;1329;51.384;7.122;2024-01-15T08:07:41;3.50;99.90
2639;DHT22;1329;51.384;7.122;2024-01-15T08:10:09;3.50;99.90
2639;DHT22;1329;51.384;7.122;2024-01-15T08:12:35;3.50;99.90
2639;DHT22;1329;51.384;7.122;2024-01-15T08:15:03;3.50;99.90
2639;DHT22;1329;51.384;7.122;2024-01-15T08:17:30;3.50;99.90
2639;DHT22;1329;51.384;7.122;2024-01-15T08:19:58;3.50;99.90
2639;DHT22;1329;51.384;7.122;2024-01-15T08:22:24;3.50;99.90
2639;DHT22;1329;51.384;7.122;2024-01-15T08:24:53;3.50;99.90
2639;DHT22;1329;51.384;7.122;2024-01-15T08:27:20;3.50;99.90
2639;DHT22;1329;51.384;7.122;2024-01-15T08:29:47;3.40;99.90
2639;DHT22;1329;51.384;7.122;2024-01-15T08:32:14;3.40;99.90
2639;DHT22;1329;51.384;7.122;2024-01-15T08:34:41;3.40;99.90
2639;DHT22;1329;51.384;7.122;2024-01-15T08:37:08;3.40;99.90
2639;DHT22;1329;51.384;7.122;2024-01-15T08:39:35;3.40;99.90
2639;DHT22;1329;51.384;7.122;2024-01-15T08:42:05;3.40;99.90
2639;DHT22;1329;51.384;7.122;2024-01-15T08:44:32;3.40;99.90
2639;DHT22;1329;51.384;7.122;2024-01-15T08:46:59;3.40;99.90
2639;DHT22;1329;51.384;7.122;2024-01-15T08:49:25;3.40;99.90
2639;DHT22;1329;51.384;7.122;2024-01-15T08:51:52;3.40;99.90
2639;DHT22;1329;51.384;7.122;2024-01-15T08:54:19;3.40;99.90
2639;DHT22;1329;51.384;7.122;2024-01-15T08:56:46;3.30;99.90
2639;DHT22;1329;51.384;7.122;2024-01-15T08:59:14;3.30;99.90
2639;DHT22;1329;51.384;7.122;2024-01-15T09:01:41;3.30;99.90
2639;DHT22;1329;51.384;7.122;2024-01-15T09:04:08;3.30;99.90
2639;DHT22;1329;51.384;7.122;2024-01-15T09:06:35;3.30;99.90
2639;DHT22;1329;51.384;7.122;2024-01-15T09:09:02;3.30;99.90
2639;DHT22;1329;51.384;7.122;2024-01-15T09:11:29;3.40;99.90
2639;DHT22;1329;51.384;7.122;2024-01-15T09:13:57;3.30;99.90
2639;DHT22;1329;51.384;7.122;2024-01-15T09:16:25;3.30;99.90
2639;DHT22;1329;51.384;7.122;2024-01-15T09:18:52;3.30;99.90
2639;DHT22;1329;51.384;7.122;2024-01-15T09:21:19;3.30;99.90
2639;DHT22;1329;51.384;7.122;2024-01-15T09:23:46;3.30;99.90
2639;DHT22;1329;51.384;7.122;2024-01-15T09:26:13;3.30;99.90
2639;DHT22;1329;51.384;7.122;2024-01-15T09:28:40;3.30;99.90
2639;DHT22;1329;51.384;7.122;2024-01-15T09:31:07;3.30;99.90
2639;DHT22;1329;51.384;7.122;2024-01-15T09:33:35;3.30;99.90
2639;DHT22;1329;51.384;7.122;2024-01-15T09:36:03;3.30;99.90
2639;DHT22;1329;51.384;7.122;2024-01-15T09:38:31;3.30;99.90
2639;DHT22;1329;51.384;7.122;2024-01-15T09:40:58;3.20;99.90
2639;DHT22;1329;51.384;7.122;2024-01-15T09:43:25;3.20;99.90
2639;DHT22;1329;51.384;7.122;2024-01-15T09:45:53;3.20;99.90
2639;DHT22;1329;51.384;7.122;2024-01-15T09:48:20;3.20;99.90
2639;DHT22;1329;51.384;7.122;2024-01-15T09:50:49;3.20;99.90
2639;DHT22;1329;51.384;7.122;2024-01-15T09:53:17;3.20;99.90
2639;DHT22;1329;51.384;7.122;2024-01-15T09:55:47;3.20;99.90
2639;DHT22;1329;51.384;7.122;2024-01-15T09:58:16;3.20;99.90
2639;DHT22;1329;51.384;7.122;2024-01-15T10:00:44;3.20;99.90
2639;DHT22;1329;51.384;7.122;2024-01-15T10:03:12;3.20;99.90
2639;DHT22;1329;51.384;7.122;2024-01-15T10:05:40;3.20;99.90
2639;DHT22;1329;51.384;7.122;2024-01-15T10:08:09;3.30;99.90
2639;DHT22;1329;51.384;7.122;2024-01-15T10:10:37;3.30;99.90
2639;DHT22;1329;51.384;7.122;2024-01-15T10:13:04;3.30;99.90
2639;DHT22;1329;51.384;7.122;2024-01-15T10:15:34;3.40;99.90
2639;DHT22;1329;51.384;7.122;2024-01-15T10:18:03;3.30;99.90
2639;DHT22;1329;51.384;7.122;2024-01-15T10:20:32;3.40;99.90
2639;DHT22;1329;51.384;7.122;2024-01-15T10:22:59;3.40;99.90
2639;DHT22;1329;51.384;7.122;2024-01-15T10:25:28;3.40;99.90
2639;DHT22;1329;51.384;7.122;2024-01-15T10:28:00;3.40;99.90
2639;DHT22;1329;51.384;7.122;2024-01-15T10:30:28;3.50;99.90
2639;DHT22;1329;51.384;7.122;2024-01-15T10:32:58;3.50;99.90
2639;DHT22;1329;51.384;7.122;2024-01-15T10:35:28;3.50;99.90
2639;DHT22;1329;51.384;7.122;2024-01-15T10:37:56;3.50;99.90
2639;DHT22;1329;51.384;7.122;2024-01-15T10:40:23;3.50;99.90
2639;DHT22;1329;51.384;7.122;2024-01-15T10:42:52;3.50;99.90
2639;DHT22;1329;51.384;7.122;2024-01-15T10:45:19;3.50;99.90
2639;DHT22;1329;51.384;7.122;2024-01-15T10:47:47;3.50;99.90
2639;DHT22;1329;51.384;7.122;2024-01-15T10:50:14;3.60;99.90
2639;DHT22;1329;51.384;7.122;2024-01-15T10:52:42;3.60;99.90
2639;DHT22;1329;51.384;7.122;2024-01-15T10:55:10;3.60;99.90
2639;DHT22;1329;51.384;7.122;2024-01-15T10:57:38;3.60;99.90
2639;DHT22;1329;51.384;7.122;2024-01-15T11:00:08;3.60;99.90
2639;DHT22;1329;51.384;7.122;2024-01-15T11:02:40;3.60;99.90
2639;DHT22;1329;51.384;7.122;2024-01-15T11:05:08;3.60;99.90
2639;DHT22;1329;51.384;7.122;2024-01-15T11:07:36;3.70;99.90
2639;DHT22;1329;51.384;7.122;2024-01-15T11:10:07;3.70;99.90
2639;DHT22;1329;51.384;7.122;2024-01-15T11:12:35;3.70;99.90
2639;DHT22;1329;51.384;7.122;2024-01-15T11:15:04;3.70;99.90
2639;DHT22;1329;51.384;7.122;2024-01-15T11:17:58;3.70;99.90
2639;DHT22;1329;51.384;7.122;2024-01-15T11:20:27;3.80;99.90
2639;DHT22;1329;51.384;7.122;2024-01-15T11:22:54;3.80;99.90
2639;DHT22;1329;51.384;7.122;2024-01-15T11:25:23;3.80;99.90
2639;DHT22;1329;51.384;7.122;2024-01-15T11:27:51;3.80;99.90
2639;DHT22;1329;51.384;7.122;2024-01-15T11:30:25;3.90;99.90
2639;DHT22;1329;51.384;7.122;2024-01-15T11:32:52;3.90;99.90
2639;DHT22;1329;51.384;7.122;2024-01-15T11:35:19;3.90;99.90
2639;DHT22;1329;51.384;7.122;2024-01-15T11:37:59;3.90;99.90
2639;DHT22;1329;51.384;7.122;2024-01-15T11:40:45;3.90;99.90
2639;DHT22;1329;51.384;7.122;2024-01-15T11:43:16;3.90;99.90
2639;DHT22;1329;51.384;7.122;2024-01-15T11:45:52;3.90;99.90
2639;DHT22;1329;51.384;7.122;2024-01-15T11:48:20;3.90;99.90
2639;DHT22;1329;51.384;7.122;2024-01-15T11:50:50;3.90;99.90
2639;DHT22;1329;51.384;7.122;2024-01-15T11:53:26;4.00;99.90
2639;DHT22;1329;51.384;7.122;2024-01-15T11:55:58;4.00;99.90
2639;DHT22;1329;51.384;7.122;2024-01-15T11:58:26;4.00;99.90
2639;DHT22;1329;51.384;7.122;2024-01-15T12:00:55;4.00;99.90
2639;DHT22;1329;51.384;7.122;2024-01-15T12:03:22;4.00;99.90
2639;DHT22;1329;51.384;7.122;2024-01-15T12:05:51;4.00;99.90
2639;DHT22;1329;51.384;7.122;2024-01-15T12:08:21;4.00;99.90
2639;DHT22;1329;51.384;7.122;2024-01-15T12:10:49;4.00;99.90
2639;DHT22;1329;51.384;7.122;2024-01-15T12:13:17;3.90;99.90
2639;DHT22;1329;51.384;7.122;2024-01-15T12:15:45;3.90;99.90
2639;DHT22;1329;51.384;7.122;2024-01-15T12:18:16;3.90;99.90
2639;DHT22;1329;51.384;7.122;2024-01-15T12:20:44;3.90;99.90
2639;DHT22;1329;51.384;7.122;2024-01-15T12:23:15;3.80;99.90
2639;DHT22;1329;51.384;7.122;2024-01-15T12:25:43;3.80;99.90
2639;DHT22;1329;51.384;7.122;2024-01-15T12:28:11;3.80;99.90
2639;DHT22;1329;51.384;7.122;2024-01-15T12:30:39;3.80;99.90
2639;DHT22;1329;51.384;7.122;2024-01-15T12:33:07;3.70;99.90
2639;DHT22;1329;51.384;7.122;2024-01-15T12:35:36;3.70;99.90
2639;DHT22;1329;51.384;7.122;2024-01-15T12:38:03;3.80;99.90
2639;DHT22;1329;51.384;7.122;2024-01-15T12:40:32;3.80;99.90
2639;DHT22;1329;51.384;7.122;2024-01-15T12:43:00;3.90;99.90
2639;DHT22;1329;51.384;7.122;2024-01-15T12:45:28;4.00;99.90
2639;DHT22;1329;51.384;7.122;2024-01-15T12:47:56;4.10;99.90
2639;DHT22;1329;51.384;7.122;2024-01-15T12:50:24;4.20;99.90
2639;DHT22;1329;51.384;7.122;2024-01-15T12:52:53;4.20;99.90
2639;DHT22;1329;51.384;7.122;2024-01-15T12:55:24;4.30;99.90
2639;DHT22;1329;51.384;7.122;2024-01-15T12:57:52;4.30;99.90
2639;DHT22;1329;51.384;7.122;2024-01-15T13:00:20;4.30;99.90
2639;DHT22;1329;51.384;7.122;2024-01-15T13:02:48;4.30;99.90
2639;DHT22;1329;51.384;7.122;2024-01-15T13:05:16;4.20;99.90
2639;DHT22;1329;51.384;7.122;2024-01-15T13:07:44;4.20;99.90
2639;DHT22;1329;51.384;7.122;2024-01-15T13:10:13;4.20;99.90
2639;DHT22;1329;51.384;7.122;2024-01-15T13:12:40;4.10;99.90
2639;DHT22;1329;51.384;7.122;2024-01-15T13:15:08;4.00;99.90
2639;DHT22;1329;51.384;7.122;2024-01-15T13:17:37;4.00;99.90
2639;DHT22;1329;51.384;7.122;2024-01-15T13:20:06;3.90;99.90
2639;DHT22;1329;51.384;7.122;2024-01-15T13:22:36;3.90;99.90
2639;DHT22;1329;51.384;7.122;2024-01-15T13:25:06;3.90;99.90
2639;DHT22;1329;51.384;7.122;2024-01-15T13:27:35;3.80;99.90
2639;DHT22;1329;51.384;7.122;2024-01-15T13:30:03;3.80;99.90
2639;DHT22;1329;51.384;7.122;2024-01-15T13:32:32;3.80;99.90
2639;DHT22;1329;51.384;7.122;2024-01-15T13:35:00;3.70;99.90
2639;DHT22;1329;51.384;7.122;2024-01-15T13:37:28;3.80;99.90
2639;DHT22;1329;51.384;7.122;2024-01-15T13:39:55;3.80;99.90
2639;DHT22;1329;51.384;7.122;2024-01-15T13:42:22;3.80;99.90
2639;DHT22;1329;51.384;7.122;2024-01-15T13:44:51;3.80;99.90
2639;DHT22;1329;51.384;7.122;2024-01-15T13:47:18;3.80;99.90
2639;DHT22;1329;51.384;7.122;2024-01-15T13:49:46;3.80;99.90
2639;DHT22;1329;51.384;7.122;2024-01-15T13:52:13;3.90;99.90
2639;DHT22;1329;51.384;7.122;2024-01-15T13:54:41;3.90;99.90
2639;DHT22;1329;51.384;7.122;2024-01-15T13:57:08;3.90;99.90
2639;DHT22;1329;51.384;7.122;2024-01-15T13:59:37;3.90;99.90
2639;DHT22;1329;51.384;7.122;2024-01-15T14:02:06;3.90;99.90
2639;DHT22;1329;51.384;7.122;2024-01-15T14:04:33;3.90;99.90
2639;DHT22;1329;51.384;7.122;2024-01-15T14:07:00;3.90;99.90
2639;DHT22;1329;51.384;7.122;2024-01-15T14:09:27;3.90;99.90
2639;DHT22;1329;51.384;7.122;2024-01-15T14:11:55;3.90;99.90
2639;DHT22;1329;51.384;7.122;2024-01-15T14:14:22;3.90;99.90
2639;DHT22;1329;51.384;7.122;2024-01-15T14:16:50;4.00;99.90
2639;DHT22;1329;51.384;7.122;2024-01-15T14:19:18;4.00;99.90
2639;DHT22;1329;51.384;7.122;2024-01-15T14:21:46;3.90;99.90
2639;DHT22;1329;51.384;7.122;2024-01-15T14:24:15;4.00;99.90
2639;DHT22;1329;51.384;7.122;2024-01-15T14:26:43;3.90;99.90
2639;DHT22;1329;51.384;7.122;2024-01-15T14:29:11;3.90;99.90
2639;DHT22;1329;51.384;7.122;2024-01-15T14:31:38;3.90;99.90
2639;DHT22;1329;51.384;7.122;2024-01-15T14:34:06;3.90;99.90
2639;DHT22;1329;51.384;7.122;2024-01-15T14:36:35;3.90;99.90
2639;DHT22;1329;51.384;7.122;2024-01-15T14:39:02;3.90;99.90
2639;DHT22;1329;51.384;7.122;2024-01-15T14:41:30;3.90;99.90
2639;DHT22;1329;51.384;7.122;2024-01-15T14:43:57;3.90;99.90
2639;DHT22;1329;51.384;7.122;2024-01-15T14:46:25;3.80;99.90
2639;DHT22;1329;51.384;7.122;2024-01-15T14:48:53;3.80;99.90
2639;DHT22;1329;51.384;7.122;2024-01-15T14:51:20;3.80;99.90
2639;DHT22;1329;51.384;7.122;2024-01-15T14:53:49;3.80;99.90
2639;DHT22;1329;51.384;7.122;2024-01-15T14:56:17;3.80;99.90
2639;DHT22;1329;51.384;7.122;2024-01-15T14:58:44;3.80;99.90
2639;DHT22;1329;51.384;7.122;2024-01-15T15:01:11;3.80;99.90
2639;DHT22;1329;51.384;7.122;2024-01-15T15:03:39;3.80;99.90
2639;DHT22;1329;51.384;7.122;2024-01-15T15:06:06;3.80;99.90
2639;DHT22;1329;51.384;7.122;2024-01-15T15:08:34;3.80;99.90
2639;DHT22;1329;51.384;7.122;2024-01-15T15:11:03;3.80;99.90
2639;DHT22;1329;51.384;7.122;2024-01-15T15:13:31;3.80;99.90
2639;DHT22;1329;51.384;7.122;2024-01-15T15:15:58;3.80;99.90
2639;DHT22;1329;51.384;7.122;2024-01-15T15:18:25;3.80;99.90
2639;DHT22;1329;51.384;7.122;2024-01-15T15:20:52;3.80;99.90
2639;DHT22;1329;51.384;7.122;2024-01-15T15:23:20;3.80;99.90
2639;DHT22;1329;51.384;7.122;2024-01-15T15:25:47;3.80;99.90
2639;DHT22;1329;51.384;7.122;2024-01-15T15:28:15;3.70;99.90
2639;DHT22;1329;51.384;7.122;2024-01-15T15:30:42;3.70;99.90
2639;DHT22;1329;51.384;7.122;2024-01-15T15:33:10;3.70;99.90
2639;DHT22;1329;51.384;7.122;2024-01-15T15:35:37;3.70;99.90
2639;DHT22;1329;51.384;7.122;2024-01-15T15:38:04;3.70;99.90
2639;DHT22;1329;51.384;7.122;2024-01-15T15:40:32;3.60;99.90
2639;DHT22;1329;51.384;7.122;2024-01-15T15:42:59;3.60;99.90
2639;DHT22;1329;51.384;7.122;2024-01-15T15:45:27;3.60;99.90
2639;DHT22;1329;51.384;7.122;2024-01-15T15:47:55;3.60;99.90
2639;DHT22;1329;51.384;7.122;2024-01-15T15:50:22;3.50;99.90
2639;DHT22;1329;51.384;7.122;2024-01-15T15:52:50;3.50;99.90
2639;DHT22;1329;51.384;7.122;2024-01-15T15:55:17;3.50;99.90
2639;DHT22;1329;51.384;7.122;2024-01-15T15:57:46;3.50;99.90
2639;DHT22;1329;51.384;7.122;2024-01-15T16:00:15;3.50;99.90
2639;DHT22;1329;51.384;7.122;2024-01-15T16:02:44;3.50;99.90
2639;DHT22;1329;51.384;7.122;2024-01-15T16:05:12;3.50;99.90
2639;DHT22;1329;51.384;7.122;2024-01-15T16:07:39;3.50;99.90
2639;DHT22;1329;51.384;7.122;2024-01-15T16:10:07;3.50;99.90
2639;DHT22;1329;51.384;7.122;2024-01-15T16:12:36;3.50;99.90
2639;DHT22;1329;51.384;7.122;2024-01-15T16:15:16;3.50;99.90
2639;DHT22;1329;51.384;7.122;2024-01-15T16:17:46;3.40;99.90
2639;DHT22;1329;51.384;7.122;2024-01-15T16:20:13;3.50;99.90
2639;DHT22;1329;51.384;7.122;2024-01-15T16:22:41;3.50;99.90
2639;DHT22;1329;51.384;7.122;2024-01-15T16:25:09;3.40;99.90
2639;DHT22;1329;51.384;7.122;2024-01-15T16:27:36;3.40;99.90
2639;DHT22;1329;51.384;7.122;2024-01-15T16:30:05;3.50;99.90
2639;DHT22;1329;51.384;7.122;2024-01-15T16:32:33;3.40;99.90
2639;DHT22;1329;51.384;7.122;2024-01-15T16:35:02;3.40;99.90
2639;DHT22;1329;51.384;7.122;2024-01-15T16:37:30;3.40;99.90
2639;DHT22;1329;51.384;7.122;2024-01-15T16:39:57;3.40;99.90
2639;DHT22;1329;51.384;7.122;2024-01-15T16:42:26;3.40;99.90
2639;DHT22;1329;51.384;7.122;2024-01-15T16:44:53;3.40;99.90
2639;DHT22;1329;51.384;7.122;2024-01-15T16:47:20;3.30;99.90
2639;DHT22;1329;51.384;7.122;2024-01-15T16:49:47;3.30;99.90
2639;DHT22;1329;51.384;7.122;2024-01-15T16:52:16;3.30;99.90
2639;DHT22;1329;51.384;7.122;2024-01-15T16:54:45;3.30;99.90
2639;DHT22;1329;51.384;7.122;2024-01-15T16:57:12;3.30;99.90
2639;DHT22;1329;51.384;7.122;2024-01-15T16:59:40;3.40;99.90
2639;DHT22;1329;51.384;7.122;2024-01-15T17:02:07;3.30;99.90
2639;DHT22;1329;51.384;7.122;2024-01-15T17:04:35;3.40;99.90
2639;DHT22;1329;51.384;7.122;2024-01-15T17:07:02;3.30;99.90